TAF Text Data
IDs:
Format:
Raw Decoded Include METAR

Data at: 1406 UTC 23 Sep 2021

KDNL 231121Z 2312/2412 30007KT P6SM SKC
  FM231500 34007KT P6SM SKC
  FM240300 01005KT P6SM SKC